Time;durP1;ratioP1;P1;durP2;ratioP2;P2;SDS_P1;SDS_P2;PMS_P1;PMS_P2;Temp;Humidity;BMP_temperature;BMP_pressure;BME280_temperature;BME280_humidity;BME280_pressure;Samples;Min_cycle;Max_cycle;Signal;HPM_P1;HPM_P2
2023/04/22 00:00:07;;;;;;;0.00;0.00;;;11.00;99.00;;;;;;4905626;29;20098;-86
2023/04/22 00:02:36;;;;;;;0.00;0.00;;;11.00;96.80;;;;;;4906191;29;20044;-86
2023/04/22 00:05:05;;;;;;;0.00;0.00;;;11.00;98.40;;;;;;4922083;29;20087;-86
2023/04/22 00:07:31;;;;;;;0.00;0.00;;;10.90;96.50;;;;;;4906331;29;20090;-86
2023/04/22 00:09:57;;;;;;;0.13;0.00;;;10.80;98.00;;;;;;4905917;29;20075;-86
2023/04/22 00:12:23;;;;;;;0.00;0.00;;;10.80;99.00;;;;;;4905956;29;20514;-87
2023/04/22 00:14:49;;;;;;;0.00;0.00;;;10.70;98.10;;;;;;4906193;29;20050;-87
2023/04/22 00:17:17;;;;;;;0.88;0.30;;;10.60;97.60;;;;;;4906032;29;20134;-86
2023/04/22 00:19:43;;;;;;;0.50;0.13;;;10.60;95.90;;;;;;4921709;29;20047;-86
2023/04/22 00:22:11;;;;;;;0.00;0.00;;;10.60;96.40;;;;;;4905918;29;20115;-86
2023/04/22 00:24:36;;;;;;;0.00;0.00;;;10.50;98.30;;;;;;4921941;29;20088;-86
2023/04/22 00:27:05;;;;;;;0.00;0.00;;;10.50;99.50;;;;;;4890532;29;20052;-87
2023/04/22 00:29:30;;;;;;;0.00;0.00;;;10.40;97.10;;;;;;4921706;29;20086;-86
2023/04/22 00:31:56;;;;;;;0.20;0.10;;;10.40;97.30;;;;;;4905659;29;20130;-86
2023/04/22 00:34:22;;;;;;;0.00;0.00;;;10.30;98.60;;;;;;4906333;29;20051;-86
2023/04/22 00:36:51;;;;;;;0.00;0.00;;;10.30;97.50;;;;;;4921371;29;20047;-86
2023/04/22 00:39:19;;;;;;;0.00;0.00;;;10.30;97.60;;;;;;4905149;29;20101;-86
2023/04/22 00:41:48;;;;;;;0.00;0.00;;;10.30;96.10;;;;;;4905917;29;20470;-87
2023/04/22 00:44:13;;;;;;;0.05;0.00;;;10.30;96.90;;;;;;4905688;29;20484;-86
2023/04/22 00:46:42;;;;;;;0.00;0.00;;;10.20;97.70;;;;;;4921011;29;20066;-87
2023/04/22 00:49:08;;;;;;;0.00;0.00;;;10.20;99.70;;;;;;4905451;29;20052;-86
2023/04/22 00:51:42;;;;;;;0.00;0.00;;;10.20;98.70;;;;;;4905450;29;20074;-86
2023/04/22 00:54:07;;;;;;;0.00;0.00;;;10.20;96.80;;;;;;4920971;29;20059;-85
2023/04/22 00:56:37;;;;;;;0.20;0.20;;;10.20;99.20;;;;;;4889727;29;20059;-87
2023/04/22 00:59:06;;;;;;;0.10;0.10;;;10.20;99.90;;;;;;4889400;29;20086;-87
2023/04/22 01:02:02;;;;;;;0.00;0.00;;;10.10;99.90;;;;;;4905265;29;20055;-87
2023/04/22 01:04:31;;;;;;;0.00;0.00;;;10.10;99.90;;;;;;4909736;29;20060;-86
2023/04/22 01:07:04;;;;;;;0.00;0.00;;;10.10;99.00;;;;;;4920561;29;20075;-86
2023/04/22 01:09:30;;;;;;;0.00;0.00;;;10.00;99.90;;;;;;4904669;29;20134;-87
2023/04/22 01:11:56;;;;;;;0.10;0.10;;;10.00;99.90;;;;;;4919556;29;20044;-86
2023/04/22 01:14:23;;;;;;;1.65;0.00;;;9.90;99.90;;;;;;4905395;29;20062;-86
2023/04/22 01:16:52;;;;;;;0.30;0.10;;;9.80;99.90;;;;;;4904900;29;20052;-86
2023/04/22 01:19:18;;;;;;;0.98;0.43;;;9.80;99.10;;;;;;4904888;29;20051;-87
2023/04/22 01:21:50;;;;;;;0.00;0.00;;;9.80;97.50;;;;;;4905174;29;20075;-87
2023/04/22 01:24:16;;;;;;;0.00;0.00;;;9.80;99.90;;;;;;4905072;29;20138;-87
2023/04/22 01:26:42;;;;;;;0.45;0.03;;;9.80;99.90;;;;;;4904714;29;20055;-86
2023/04/22 01:29:11;;;;;;;0.00;0.00;;;9.70;99.90;;;;;;4905110;29;20047;-87
2023/04/22 01:31:37;;;;;;;0.00;0.00;;;9.70;97.40;;;;;;4920299;29;20075;-87
2023/04/22 01:34:05;;;;;;;0.20;0.00;;;9.70;98.20;;;;;;4904862;29;20047;-86
2023/04/22 01:36:34;;;;;;;0.10;0.10;;;9.80;99.90;;;;;;4920263;29;20047;-87
2023/04/22 01:39:05;;;;;;;0.73;0.10;;;9.70;99.90;;;;;;4904392;29;20048;-86
2023/04/22 01:41:34;;;;;;;0.00;0.00;;;9.70;98.50;;;;;;4889168;29;20063;-86
2023/04/22 01:44:01;;;;;;;0.10;0.10;;;9.70;99.90;;;;;;4920556;29;20059;-86
2023/04/22 01:46:27;;;;;;;0.10;0.10;;;9.70;98.60;;;;;;4904107;29;20631;-86
2023/04/22 01:49:00;;;;;;;0.00;0.00;;;9.70;99.50;;;;;;4920432;29;20087;-87
2023/04/22 01:51:30;;;;;;;0.00;0.00;;;9.60;99.90;;;;;;4904505;29;20059;-86
2023/04/22 01:54:02;;;;;;;0.65;0.40;;;9.60;99.90;;;;;;4904079;29;20374;-87
2023/04/22 01:56:28;;;;;;;0.00;0.00;;;9.60;99.90;;;;;;4904678;29;20110;-86
2023/04/22 01:58:57;;;;;;;0.38;0.00;;;9.60;99.90;;;;;;4903967;29;20488;-87
2023/04/22 02:01:25;;;;;;;0.00;0.00;;;9.60;99.90;;;;;;4920138;29;20044;-87
2023/04/22 02:03:51;;;;;;;0.00;0.00;;;9.50;99.90;;;;;;4903991;29;20055;-87
2023/04/22 02:06:19;;;;;;;0.00;0.00;;;9.50;99.90;;;;;;4904296;29;20047;-87
2023/04/22 02:08:48;;;;;;;0.00;0.00;;;9.40;98.70;;;;;;4903595;29;20091;-87
2023/04/22 02:11:22;;;;;;;0.00;0.00;;;9.30;99.90;;;;;;4904403;29;20062;-87
2023/04/22 02:13:48;;;;;;;0.00;0.00;;;9.40;99.90;;;;;;4904314;29;20456;-87
2023/04/22 02:16:16;;;;;;;0.00;0.00;;;9.30;99.90;;;;;;4919645;29;20055;-87
2023/04/22 02:18:45;;;;;;;0.10;0.00;;;9.20;99.90;;;;;;4889193;29;20466;-87
2023/04/22 02:21:11;;;;;;;0.00;0.00;;;9.20;99.90;;;;;;4903676;29;20060;-87
2023/04/22 02:23:40;;;;;;;0.00;0.00;;;9.20;99.10;;;;;;4903306;29;20043;-87
2023/04/22 02:26:07;;;;;;;0.00;0.00;;;9.10;99.10;;;;;;4903869;29;20059;-87
2023/04/22 02:28:33;;;;;;;0.00;0.00;;;9.20;98.80;;;;;;4919387;29;20047;-88
2023/04/22 02:31:04;;;;;;;0.00;0.00;;;9.00;99.90;;;;;;4920074;29;20052;-86
2023/04/22 02:33:30;;;;;;;0.00;0.00;;;9.00;99.60;;;;;;4919530;29;20044;-87
2023/04/22 02:35:58;;;;;;;0.32;0.00;;;9.00;98.90;;;;;;4904006;29;20078;-87
2023/04/22 02:38:24;;;;;;;0.00;0.00;;;9.00;99.00;;;;;;4903422;29;20067;-87
2023/04/22 02:40:49;;;;;;;0.10;0.10;;;8.90;98.00;;;;;;4903754;29;20044;-87
2023/04/22 02:43:30;;;;;;;0.35;0.20;;;8.90;98.30;;;;;;4903731;29;20075;-87
2023/04/22 02:45:56;;;;;;;0.00;0.00;;;8.90;98.70;;;;;;4903584;29;20184;-87
2023/04/22 02:48:24;;;;;;;0.10;0.00;;;8.80;99.90;;;;;;4903596;29;20102;-86
2023/04/22 02:50:50;;;;;;;0.17;0.03;;;8.70;99.90;;;;;;4888436;29;20048;-87
2023/04/22 02:53:21;;;;;;;0.10;0.10;;;8.70;99.90;;;;;;4903406;29;20147;-85
2023/04/22 02:55:51;;;;;;;0.20;0.00;;;8.70;99.90;;;;;;4918938;29;20163;-87
2023/04/22 02:58:19;;;;;;;0.00;0.00;;;8.70;99.20;;;;;;4903707;29;20043;-87
2023/04/22 03:00:45;;;;;;;0.10;0.03;;;8.60;99.90;;;;;;4904170;29;20523;-87
2023/04/22 03:03:13;;;;;;;1.95;0.20;;;8.60;99.90;;;;;;4903416;29;20062;-87
2023/04/22 03:05:39;;;;;;;0.00;0.00;;;8.60;99.90;;;;;;4919635;29;20059;-86
2023/04/22 03:08:05;;;;;;;0.05;0.00;;;8.60;99.90;;;;;;4903498;29;20056;-86
2023/04/22 03:10:31;;;;;;;0.00;0.00;;;8.60;99.90;;;;;;4902656;29;20069;-86
2023/04/22 03:12:57;;;;;;;0.22;0.00;;;8.60;99.90;;;;;;4919250;29;20059;-86
2023/04/22 03:15:28;;;;;;;0.20;0.20;;;8.50;99.90;;;;;;4903864;29;20139;-87
2023/04/22 03:17:56;;;;;;;0.00;0.00;;;8.50;99.90;;;;;;4918487;29;20048;-87
2023/04/22 03:20:25;;;;;;;0.00;0.00;;;8.50;99.30;;;;;;4903589;29;20062;-87
2023/04/22 03:22:51;;;;;;;0.10;0.10;;;8.40;99.90;;;;;;4903287;29;20134;-87
2023/04/22 03:25:16;;;;;;;0.00;0.00;;;8.40;99.90;;;;;;4919135;29;20052;-87
2023/04/22 03:27:42;;;;;;;0.00;0.00;;;8.30;99.90;;;;;;4888093;29;20047;-86
2023/04/22 03:30:08;;;;;;;0.00;0.00;;;8.30;99.90;;;;;;4887453;29;20047;-87
2023/04/22 03:32:34;;;;;;;0.35;0.00;;;8.30;99.90;;;;;;4887406;29;20047;-86
2023/04/22 03:35:00;;;;;;;0.00;0.00;;;8.30;99.90;;;;;;4904190;29;20194;-86
2023/04/22 03:37:38;;;;;;;0.00;0.00;;;8.20;99.90;;;;;;4906743;29;20047;-87
2023/04/22 03:40:07;;;;;;;0.00;0.00;;;8.20;99.90;;;;;;4906817;29;20047;-87
2023/04/22 03:42:35;;;;;;;2.05;0.45;;;8.10;99.90;;;;;;4906195;29;20050;-87
2023/04/22 03:45:04;;;;;;;0.00;0.00;;;8.10;99.90;;;;;;4922625;29;20074;-87
2023/04/22 03:47:50;;;;;;;0.08;0.00;;;8.10;99.90;;;;;;4907166;29;20052;-86
2023/04/22 03:50:15;;;;;;;0.00;0.00;;;8.00;99.90;;;;;;4906566;29;20130;-87
2023/04/22 03:52:44;;;;;;;0.03;0.03;;;8.00;99.90;;;;;;4906671;29;20429;-87
2023/04/22 03:55:12;;;;;;;0.45;0.20;;;8.10;99.90;;;;;;4921670;29;20063;-87
2023/04/22 03:57:41;;;;;;;0.00;0.00;;;8.10;99.90;;;;;;4906491;29;20060;-87
2023/04/22 04:00:08;;;;;;;1.55;0.10;;;8.00;99.90;;;;;;4922204;29;20134;-87
2023/04/22 04:02:36;;;;;;;0.00;0.00;;;8.00;99.90;;;;;;4905935;29;20048;-86
2023/04/22 04:05:12;;;;;;;0.10;0.10;;;8.00;99.80;;;;;;4906349;29;20111;-87
2023/04/22 04:07:38;;;;;;;0.10;0.00;;;8.00;99.60;;;;;;4906192;29;20452;-87
2023/04/22 04:10:05;;;;;;;0.08;0.08;;;8.00;99.90;;;;;;4906037;29;20052;-87
2023/04/22 04:12:35;;;;;;;2.08;0.32;;;8.00;99.90;;;;;;4921618;29;20504;-87
2023/04/22 04:15:07;;;;;;;0.10;0.03;;;8.00;99.60;;;;;;4906297;29;20043;-86
2023/04/22 04:17:35;;;;;;;0.00;0.00;;;8.00;99.90;;;;;;4891042;29;20047;-87
2023/04/22 04:20:05;;;;;;;0.00;0.00;;;8.10;99.90;;;;;;4906633;29;20055;-87
2023/04/22 04:22:35;;;;;;;0.05;0.05;;;7.90;99.30;;;;;;4905889;29;20040;-87
2023/04/22 04:25:01;;;;;;;0.00;0.00;;;7.90;98.40;;;;;;4905864;29;20488;-87
2023/04/22 04:27:33;;;;;;;0.00;0.00;;;7.80;99.30;;;;;;4905533;29;20058;-87
2023/04/22 04:30:08;;;;;;;0.00;0.00;;;7.70;99.10;;;;;;4906270;29;20745;-87
2023/04/22 04:32:36;;;;;;;0.00;0.00;;;7.70;99.70;;;;;;4921925;29;20062;-87
2023/04/22 04:35:05;;;;;;;0.00;0.00;;;7.70;98.90;;;;;;4905950;29;20048;-87
2023/04/22 04:37:31;;;;;;;0.05;0.00;;;7.70;99.90;;;;;;4905798;29;20146;-87
2023/04/22 04:40:00;;;;;;;0.00;0.00;;;7.70;99.40;;;;;;4920949;29;20091;-87
2023/04/22 04:42:29;;;;;;;0.00;0.00;;;7.70;99.80;;;;;;4905243;29;20062;-87
2023/04/22 04:45:00;;;;;;;0.00;0.00;;;7.80;99.90;;;;;;4904610;29;20083;-87
2023/04/22 04:47:28;;;;;;;0.00;0.00;;;7.70;99.90;;;;;;4905831;29;20142;-87
2023/04/22 04:49:59;;;;;;;0.00;0.00;;;7.80;99.90;;;;;;4920127;29;20384;-89
2023/04/22 04:52:28;;;;;;;0.00;0.00;;;7.90;99.90;;;;;;4905844;29;20408;-88
2023/04/22 04:54:54;;;;;;;0.22;0.00;;;8.00;99.90;;;;;;4915551;29;20062;-86
2023/04/22 04:57:22;;;;;;;0.00;0.00;;;8.00;99.90;;;;;;4924442;29;20055;-86
2023/04/22 04:59:50;;;;;;;0.40;0.10;;;8.10;99.90;;;;;;4924261;29;20451;-86
2023/04/22 05:02:16;;;;;;;0.20;0.20;;;8.20;99.90;;;;;;4924043;29;20054;-86
2023/04/22 05:04:41;;;;;;;0.00;0.00;;;8.20;99.90;;;;;;4908431;29;20051;-86
2023/04/22 05:07:10;;;;;;;0.20;0.00;;;8.30;99.90;;;;;;4924116;29;20134;-86
2023/04/22 05:09:39;;;;;;;0.05;0.05;;;8.30;99.90;;;;;;4939803;29;20055;-86
2023/04/22 05:12:05;;;;;;;0.00;0.00;;;8.40;99.90;;;;;;4924376;29;20117;-86
2023/04/22 05:14:33;;;;;;;0.00;0.00;;;8.40;99.90;;;;;;4923837;29;20495;-86
2023/04/22 05:16:59;;;;;;;0.80;0.10;;;8.50;99.90;;;;;;4939804;29;20130;-86
2023/04/22 05:19:27;;;;;;;0.00;0.00;;;8.60;99.90;;;;;;4923901;29;20138;-86
2023/04/22 05:21:53;;;;;;;0.00;0.00;;;8.70;99.90;;;;;;4908458;29;20090;-86
2023/04/22 05:24:20;;;;;;;0.08;0.08;;;8.70;99.90;;;;;;4908203;29;20079;-87
2023/04/22 05:26:58;;;;;;;0.25;0.00;;;8.80;99.90;;;;;;4907422;29;20047;-86
2023/04/22 05:29:28;;;;;;;0.10;0.00;;;8.90;99.90;;;;;;4933612;29;20043;-86
2023/04/22 05:31:57;;;;;;;0.00;0.00;;;9.00;99.90;;;;;;4910226;29;20052;-86
2023/04/22 05:34:22;;;;;;;0.00;0.00;;;9.00;99.90;;;;;;4919137;29;20465;-87
2023/04/22 05:36:59;;;;;;;0.10;0.00;;;9.00;99.90;;;;;;4903758;29;20094;-87
2023/04/22 05:39:25;;;;;;;0.00;0.00;;;9.10;99.90;;;;;;4921707;29;20050;-88
2023/04/22 05:41:54;;;;;;;0.47;0.47;;;9.10;99.90;;;;;;4922071;29;20047;-87
2023/04/22 05:44:28;;;;;;;0.17;0.08;;;9.10;99.90;;;;;;4906982;29;20043;-87
2023/04/22 05:46:57;;;;;;;0.00;0.00;;;9.20;99.90;;;;;;4917488;29;20091;-88
2023/04/22 05:49:25;;;;;;;0.63;0.35;;;9.30;99.90;;;;;;4902994;29;20047;-87
2023/04/22 05:51:51;;;;;;;0.25;0.25;;;9.40;99.90;;;;;;4921421;29;20066;-87
2023/04/22 05:54:17;;;;;;;0.43;0.43;;;9.40;99.90;;;;;;4934563;29;20056;-86
2023/04/22 05:56:48;;;;;;;0.00;0.00;;;9.50;99.90;;;;;;4886708;29;20123;-86
2023/04/22 05:59:16;;;;;;;0.08;0.05;;;9.50;99.90;;;;;;4884169;29;20055;-86
2023/04/22 06:01:50;;;;;;;1.10;0.50;;;9.60;99.90;;;;;;4884965;29;20055;-86
2023/04/22 06:04:18;;;;;;;0.05;0.00;;;9.60;99.90;;;;;;4884752;29;20048;-87
2023/04/22 06:06:43;;;;;;;0.00;0.00;;;9.70;99.90;;;;;;4901199;29;20067;-85
2023/04/22 06:09:09;;;;;;;0.00;0.00;;;9.70;99.90;;;;;;4918765;29;20051;-87
2023/04/22 06:11:35;;;;;;;0.00;0.00;;;9.70;99.90;;;;;;4918422;29;20051;-87
2023/04/22 06:14:01;;;;;;;0.00;0.00;;;9.80;99.90;;;;;;4918797;29;20050;-87
2023/04/22 06:16:27;;;;;;;0.08;0.08;;;9.80;99.90;;;;;;4902879;29;20047;-87
2023/04/22 06:18:53;;;;;;;0.00;0.00;;;9.90;99.90;;;;;;4919034;29;20044;-87
2023/04/22 06:21:21;;;;;;;0.65;0.25;;;9.90;99.90;;;;;;4918545;29;20107;-86
2023/04/22 06:23:47;;;;;;;0.52;0.10;;;10.00;99.90;;;;;;4918394;29;20039;-84
2023/04/22 06:26:13;;;;;;;0.13;0.10;;;10.00;99.90;;;;;;4918397;29;20074;-85
2023/04/22 06:28:38;;;;;;;0.00;0.00;;;10.10;99.90;;;;;;4902928;29;20047;-84
2023/04/22 06:31:07;;;;;;;0.20;0.20;;;10.10;99.90;;;;;;4918908;29;20175;-89
2023/04/22 06:33:38;;;;;;;1.80;0.32;;;10.20;99.90;;;;;;4918665;29;20134;-87
2023/04/22 06:36:04;;;;;;;0.00;0.00;;;10.30;99.90;;;;;;4892364;29;20163;-86
2023/04/22 06:38:36;;;;;;;0.10;0.00;;;10.30;99.90;;;;;;4884288;29;20056;-86
2023/04/22 06:41:01;;;;;;;0.20;0.20;;;10.50;99.90;;;;;;4899827;29;20412;-87
2023/04/22 06:43:27;;;;;;;0.20;0.10;;;10.40;99.90;;;;;;4899385;29;20052;-86
2023/04/22 06:46:09;;;;;;;;;;;;;;;;;;;;;
2023/04/22 06:48:35;;;;;;;0.30;0.15;;;10.60;99.90;;;;;;4899915;29;20044;-87
2023/04/22 06:51:04;;;;;;;0.47;0.35;;;10.60;99.90;;;;;;4884127;29;20568;-86
2023/04/22 06:53:32;;;;;;;1.85;0.45;;;10.60;99.90;;;;;;4913240;29;20048;-86
2023/04/22 06:55:58;;;;;;;0.10;0.10;;;10.70;99.90;;;;;;4902701;29;20063;-86
2023/04/22 06:58:26;;;;;;;0.00;0.00;;;10.80;99.90;;;;;;4903345;29;20055;-86
2023/04/22 07:00:52;;;;;;;0.00;0.00;;;10.90;99.90;;;;;;4921732;29;20094;-86
2023/04/22 07:03:20;;;;;;;0.08;0.08;;;11.00;99.90;;;;;;4904696;29;20423;-87
2023/04/22 07:05:51;;;;;;;0.22;0.13;;;11.00;99.90;;;;;;4906079;29;20052;-87
2023/04/22 07:08:18;;;;;;;0.57;0.57;;;11.10;99.90;;;;;;4904024;29;20393;-85
2023/04/22 07:10:46;;;;;;;1.35;0.30;;;11.20;99.90;;;;;;4921283;29;20047;-86
2023/04/22 07:13:12;;;;;;;0.00;0.00;;;11.20;99.90;;;;;;4907302;29;20506;-84
2023/04/22 07:15:38;;;;;;;0.13;0.00;;;11.20;99.90;;;;;;4876245;29;20134;-84
2023/04/22 07:18:04;;;;;;;0.10;0.00;;;11.30;99.90;;;;;;4907142;29;20067;-84
2023/04/22 07:20:29;;;;;;;0.00;0.00;;;11.40;99.90;;;;;;4904492;29;20059;-85
2023/04/22 07:22:55;;;;;;;0.00;0.00;;;11.40;99.90;;;;;;4906900;29;20492;-85
2023/04/22 07:25:23;;;;;;;0.00;0.00;;;11.50;99.90;;;;;;4891649;29;20142;-86
2023/04/22 07:27:49;;;;;;;0.05;0.00;;;11.60;99.90;;;;;;4907277;29;20051;-85
2023/04/22 07:30:15;;;;;;;0.10;0.10;;;11.80;99.90;;;;;;4894627;29;20052;-86
2023/04/22 07:32:40;;;;;;;1.08;0.10;;;11.80;99.90;;;;;;4891836;29;20548;-86
2023/04/22 07:35:06;;;;;;;0.73;0.43;;;11.90;99.90;;;;;;4869716;29;20052;-86
2023/04/22 07:37:40;;;;;;;0.00;0.00;;;12.00;99.50;;;;;;4904090;29;20057;-86
2023/04/22 07:40:10;;;;;;;0.00;0.00;;;12.10;99.90;;;;;;4889456;29;20047;-86
2023/04/22 07:42:37;;;;;;;0.10;0.03;;;12.30;99.90;;;;;;4904741;29;20048;-86
2023/04/22 07:45:04;;;;;;;1.30;0.43;;;12.40;99.90;;;;;;4890196;29;20060;-86
2023/04/22 07:47:32;;;;;;;0.10;0.10;;;12.50;98.60;;;;;;4871933;29;20501;-87
2023/04/22 07:50:01;;;;;;;0.15;0.00;;;12.70;99.90;;;;;;4887802;29;20040;-86
2023/04/22 07:52:28;;;;;;;0.00;0.00;;;12.90;99.90;;;;;;4887777;29;20412;-86
2023/04/22 07:54:57;;;;;;;0.10;0.10;;;13.00;98.80;;;;;;4895091;29;20060;-86
2023/04/22 07:57:23;;;;;;;0.00;0.00;;;13.20;95.80;;;;;;4919008;29;20130;-85
2023/04/22 07:59:52;;;;;;;0.08;0.08;;;13.60;97.80;;;;;;4918983;29;20060;-85
2023/04/22 08:02:18;;;;;;;0.10;0.10;;;14.20;95.40;;;;;;4918689;29;20048;-86
2023/04/22 08:04:46;;;;;;;0.05;0.05;;;14.70;96.80;;;;;;4887921;29;20052;-85
2023/04/22 08:07:13;;;;;;;0.17;0.13;;;15.30;93.10;;;;;;4887984;29;20055;-85
2023/04/22 08:09:38;;;;;;;1.40;0.38;;;15.40;88.00;;;;;;4918371;29;20048;-85
2023/04/22 08:12:04;;;;;;;0.35;0.35;;;15.60;89.00;;;;;;4902624;29;20048;-84
2023/04/22 08:14:33;;;;;;;0.25;0.20;;;15.70;99.90;;;;;;4903159;29;20060;-84
2023/04/22 08:16:58;;;;;;;0.55;0.25;;;15.70;99.90;;;;;;4902866;29;20138;-84
2023/04/22 08:19:26;;;;;;;3.42;0.15;;;15.70;99.90;;;;;;4902991;29;20139;-85
2023/04/22 08:21:52;;;;;;;0.65;0.65;;;15.80;99.90;;;;;;4903030;29;20056;-85
2023/04/22 08:24:20;;;;;;;0.10;0.10;;;15.60;99.90;;;;;;4914566;29;20052;-84
2023/04/22 08:26:46;;;;;;;0.30;0.30;;;15.80;99.90;;;;;;4908984;29;20055;-84
2023/04/22 08:29:12;;;;;;;0.00;0.00;;;16.00;99.90;;;;;;4896292;29;20488;-84
2023/04/22 08:31:38;;;;;;;0.00;0.00;;;16.10;99.90;;;;;;4886953;29;20568;-84
2023/04/22 08:34:04;;;;;;;0.17;0.10;;;16.20;99.90;;;;;;4902776;29;20135;-85
2023/04/22 08:36:30;;;;;;;0.00;0.00;;;16.30;99.90;;;;;;4918874;29;20059;-84
2023/04/22 08:38:56;;;;;;;0.00;0.00;;;16.50;99.90;;;;;;4906372;29;20429;-84
2023/04/22 08:41:24;;;;;;;0.25;0.25;;;16.80;99.90;;;;;;4879351;29;20131;-84
2023/04/22 08:43:51;;;;;;;0.52;0.52;;;16.80;99.90;;;;;;4931225;29;20040;-84
2023/04/22 08:46:20;;;;;;;0.00;0.00;;;16.80;99.90;;;;;;4905319;29;20054;-84
2023/04/22 08:48:50;;;;;;;0.00;0.00;;;17.00;99.90;;;;;;4921324;29;20097;-85
2023/04/22 08:51:17;;;;;;;0.00;0.00;;;17.00;99.90;;;;;;4905981;29;20087;-85
2023/04/22 08:53:43;;;;;;;0.65;0.20;;;17.40;99.90;;;;;;4937812;29;20088;-85
2023/04/22 08:56:16;;;;;;;0.00;0.00;;;17.60;99.90;;;;;;4924056;29;20499;-85
2023/04/22 08:58:42;;;;;;;0.25;0.25;;;17.60;99.90;;;;;;4924359;29;20103;-85
2023/04/22 09:01:08;;;;;;;0.00;0.00;;;17.70;99.90;;;;;;4908117;29;20043;-85
2023/04/22 09:03:36;;;;;;;0.32;0.32;;;17.90;99.90;;;;;;4939845;29;20043;-85
2023/04/22 09:06:05;;;;;;;0.10;0.10;;;17.90;99.90;;;;;;4924068;29;20044;-85
2023/04/22 09:08:31;;;;;;;0.00;0.00;;;17.80;99.90;;;;;;4908355;29;20102;-84
2023/04/22 09:10:58;;;;;;;0.15;0.10;;;18.00;99.90;;;;;;4892368;29;20447;-85
2023/04/22 09:13:26;;;;;;;0.30;0.17;;;18.10;99.90;;;;;;4923766;29;20062;-84
2023/04/22 09:15:52;;;;;;;0.30;0.10;;;18.20;99.90;;;;;;4908626;29;20086;-85
2023/04/22 09:18:18;;;;;;;0.00;0.00;;;18.20;99.90;;;;;;4905080;29;20458;-85
2023/04/22 09:20:49;;;;;;;0.15;0.15;;;18.40;99.90;;;;;;4921045;29;20512;-85
2023/04/22 09:23:15;;;;;;;0.20;0.20;;;18.60;99.90;;;;;;4920604;29;20129;-85
2023/04/22 09:25:40;;;;;;;0.57;0.30;;;18.50;99.90;;;;;;4920474;29;20572;-85
2023/04/22 09:28:11;;;;;;;0.00;0.00;;;18.60;99.90;;;;;;4889462;29;20051;-85
2023/04/22 09:30:39;;;;;;;0.30;0.30;;;18.80;99.90;;;;;;4920561;29;20047;-84
2023/04/22 09:33:07;;;;;;;0.03;0.03;;;18.80;99.90;;;;;;4904464;29;20369;-85
2023/04/22 09:35:35;;;;;;;0.00;0.00;;;18.80;99.90;;;;;;4920100;29;20130;-85
2023/04/22 09:38:06;;;;;;;0.60;0.30;;;18.70;99.90;;;;;;4904503;29;20527;-85
2023/04/22 09:40:33;;;;;;;1.95;0.30;;;18.60;99.90;;;;;;4919898;29;20555;-85
2023/04/22 09:43:06;;;;;;;0.10;0.10;;;18.70;99.90;;;;;;4920033;29;20050;-84
2023/04/22 09:45:39;;;;;;;0.08;0.05;;;18.70;99.90;;;;;;4904562;29;20484;-85
2023/04/22 09:48:15;;;;;;;2.28;0.35;;;18.80;99.90;;;;;;4904637;29;20056;-85
2023/04/22 09:50:52;;;;;;;0.10;0.10;;;18.80;99.90;;;;;;4904634;29;20083;-85
2023/04/22 09:53:20;;;;;;;0.00;0.00;;;19.00;99.90;;;;;;4920456;29;20055;-84
2023/04/22 09:55:51;;;;;;;0.30;0.30;;;18.90;99.90;;;;;;4904543;29;20091;-84
2023/04/22 09:58:19;;;;;;;0.00;0.00;;;19.00;99.90;;;;;;4904312;29;20054;-85
2023/04/22 10:01:04;;;;;;;0.00;0.00;;;19.10;99.90;;;;;;4904191;29;20066;-85
2023/04/22 10:03:30;;;;;;;0.40;0.38;;;19.10;99.90;;;;;;4888255;29;20052;-85
2023/04/22 10:05:59;;;;;;;0.00;0.00;;;19.20;99.90;;;;;;4920058;29;20052;-85
2023/04/22 10:08:25;;;;;;;3.30;0.88;;;19.40;99.90;;;;;;4904674;29;20056;-85
2023/04/22 10:10:54;;;;;;;0.00;0.00;;;19.30;99.90;;;;;;4919523;29;20052;-85
2023/04/22 10:13:21;;;;;;;0.13;0.13;;;19.40;99.90;;;;;;4904015;29;20044;-85
2023/04/22 10:15:56;;;;;;;0.15;0.10;;;19.60;99.90;;;;;;4919816;29;20115;-85
2023/04/22 10:18:27;;;;;;;0.13;0.13;;;19.70;99.90;;;;;;4904377;29;20059;-84
2023/04/22 10:20:56;;;;;;;0.00;0.00;;;19.90;99.90;;;;;;4904459;29;20492;-85
2023/04/22 10:23:31;;;;;;;0.05;0.00;;;20.00;99.90;;;;;;4919777;29;20054;-85
2023/04/22 10:25:58;;;;;;;0.10;0.00;;;20.10;99.90;;;;;;4903658;29;20059;-85
2023/04/22 10:28:30;;;;;;;0.43;0.10;;;20.10;99.90;;;;;;4888262;29;20106;-85
2023/04/22 10:30:58;;;;;;;0.28;0.20;;;20.10;99.90;;;;;;4920002;29;20046;-86
2023/04/22 10:33:26;;;;;;;0.10;0.10;;;20.30;99.90;;;;;;4904166;29;20146;-85
2023/04/22 10:36:18;;;;;;;0.55;0.38;;;20.30;99.90;;;;;;4904395;29;20099;-86
2023/04/22 10:38:49;;;;;;;0.00;0.00;;;20.40;99.90;;;;;;4903785;29;20535;-86
2023/04/22 10:41:16;;;;;;;0.63;0.22;;;20.40;99.90;;;;;;4919091;29;20082;-86
2023/04/22 10:43:54;;;;;;;0.00;0.00;;;20.50;99.90;;;;;;4920582;29;20054;-86
2023/04/22 10:46:33;;;;;;;0.28;0.00;;;20.50;99.90;;;;;;4910211;29;20058;-86
2023/04/22 10:49:10;;;;;;;0.17;0.17;;;20.60;99.90;;;;;;4909960;29;20130;-86
2023/04/22 10:51:46;;;;;;;0.00;0.00;;;20.60;99.90;;;;;;4909598;29;20076;-86
2023/04/22 10:54:27;;;;;;;0.65;0.55;;;20.90;99.90;;;;;;4922523;29;20143;-86
2023/04/22 10:57:06;;;;;;;0.17;0.17;;;21.00;99.90;;;;;;4906795;29;20059;-86
2023/04/22 10:59:53;;;;;;;0.00;0.00;;;21.10;99.90;;;;;;4906698;29;20054;-87
2023/04/22 11:02:21;;;;;;;0.10;0.10;;;21.40;99.50;;;;;;4906472;29;20052;-86
2023/04/22 11:04:47;;;;;;;0.03;0.00;;;21.50;98.40;;;;;;4909883;29;20523;-86
2023/04/22 11:07:28;;;;;;;0.10;0.10;;;21.60;99.00;;;;;;4893798;29;20059;-86
2023/04/22 11:10:15;;;;;;;0.00;0.00;;;21.70;98.70;;;;;;4909693;29;20054;-86
2023/04/22 11:12:48;;;;;;;0.00;0.00;;;21.90;98.30;;;;;;4896520;29;20051;-87
2023/04/22 11:15:16;;;;;;;0.00;0.00;;;21.90;98.00;;;;;;4909267;29;20103;-86
2023/04/22 11:17:46;;;;;;;0.38;0.13;;;22.10;97.70;;;;;;4909720;29;20062;-86
2023/04/22 11:20:20;;;;;;;0.43;0.03;;;22.00;97.40;;;;;;4894400;29;20151;-86
2023/04/22 11:22:54;;;;;;;0.00;0.00;;;22.20;97.80;;;;;;4909472;29;20055;-87
2023/04/22 11:25:21;;;;;;;0.50;0.50;;;22.10;96.70;;;;;;4909894;29;20191;-86
2023/04/22 11:27:54;;;;;;;0.10;0.10;;;21.90;96.40;;;;;;4925315;29;20051;-86
2023/04/22 11:30:22;;;;;;;0.10;0.00;;;22.00;97.30;;;;;;4925243;29;20107;-86
2023/04/22 11:32:53;;;;;;;0.00;0.00;;;22.10;96.80;;;;;;4909507;29;20064;-87
2023/04/22 11:35:33;;;;;;;0.00;0.00;;;22.20;98.20;;;;;;4909149;29;20055;-86
2023/04/22 11:38:09;;;;;;;0.08;0.08;;;22.10;97.00;;;;;;4893985;29;20493;-87
2023/04/22 11:40:44;;;;;;;0.05;0.05;;;21.50;96.30;;;;;;4908797;29;20067;-87
2023/04/22 11:43:13;;;;;;;0.00;0.00;;;21.30;97.90;;;;;;4909312;29;20496;-87
2023/04/22 11:45:41;;;;;;;0.85;0.10;;;21.10;97.50;;;;;;4924762;29;20131;-87
2023/04/22 11:48:10;;;;;;;0.00;0.00;;;21.10;97.80;;;;;;4909259;29;20504;-87
2023/04/22 11:50:43;;;;;;;0.00;0.00;;;21.40;98.40;;;;;;4909218;29;20551;-86
2023/04/22 11:53:15;;;;;;;0.13;0.13;;;21.90;98.20;;;;;;4909369;29;20048;-86
2023/04/22 11:55:42;;;;;;;0.10;0.10;;;22.10;96.60;;;;;;4918372;29;20481;-87
2023/04/22 11:58:13;;;;;;;0.28;0.17;;;22.20;96.50;;;;;;4921436;29;20063;-86
2023/04/22 12:00:50;;;;;;;0.08;0.08;;;22.40;95.10;;;;;;4922299;29;20052;-87
2023/04/22 12:03:24;;;;;;;0.00;0.00;;;22.50;94.80;;;;;;4921969;29;20071;-86
2023/04/22 12:05:53;;;;;;;;;;;22.70;94.10;;;;;;4922317;29;20551;-87
2023/04/22 12:08:25;;;;;;;0.00;0.00;;;22.70;93.40;;;;;;4906410;29;20005;-86
2023/04/22 12:10:56;;;;;;;0.00;0.00;;;22.50;92.80;;;;;;4921544;29;20062;-86
2023/04/22 12:13:40;;;;;;;0.13;0.13;;;22.20;91.70;;;;;;4937937;29;20056;-86
2023/04/22 12:16:14;;;;;;;0.00;0.00;;;22.20;92.90;;;;;;4922003;29;20055;-86
2023/04/22 12:18:55;;;;;;;;;;;22.20;94.20;;;;;;4922523;29;20447;-86
2023/04/22 12:21:28;;;;;;;0.85;0.43;;;22.20;93.40;;;;;;4906523;29;19942;-86
2023/04/22 12:24:03;;;;;;;0.00;0.00;;;22.30;93.80;;;;;;4921769;29;20103;-87
2023/04/22 12:26:41;;;;;;;0.88;0.40;;;22.10;93.40;;;;;;4937656;29;20056;-87
2023/04/22 12:29:17;;;;;;;0.15;0.15;;;22.00;93.40;;;;;;4921725;29;20135;-87
2023/04/22 12:31:45;;;;;;;0.20;0.20;;;22.00;92.50;;;;;;4906650;29;20055;-86
2023/04/22 12:34:16;;;;;;;0.50;0.22;;;22.20;93.10;;;;;;4921451;29;20047;-86
2023/04/22 12:36:45;;;;;;;0.30;0.20;;;22.30;92.90;;;;;;4906654;29;20051;-86
2023/04/22 12:39:17;;;;;;;0.30;0.20;;;22.40;93.50;;;;;;4921154;29;20404;-86
2023/04/22 12:41:49;;;;;;;0.00;0.00;;;22.50;93.50;;;;;;4920964;29;20047;-86
2023/04/22 12:44:16;;;;;;;0.17;0.17;;;22.30;92.00;;;;;;4937965;29;20051;-87
2023/04/22 12:46:50;;;;;;;0.15;0.15;;;22.20;92.70;;;;;;4937353;29;20051;-86
2023/04/22 12:49:18;;;;;;;0.30;0.30;;;22.30;94.20;;;;;;4921531;29;20098;-86
2023/04/22 12:51:44;;;;;;;0.10;0.10;;;22.40;93.80;;;;;;4905450;29;20052;-86
2023/04/22 12:54:12;;;;;;;0.08;0.08;;;22.50;92.60;;;;;;4921157;29;20096;-86
2023/04/22 12:56:38;;;;;;;0.00;0.00;;;22.30;92.40;;;;;;4920970;29;20513;-85
2023/04/22 12:59:04;;;;;;;0.00;0.00;;;22.00;91.70;;;;;;4905405;29;20047;-86
2023/04/22 13:01:30;;;;;;;0.00;0.00;;;21.80;92.10;;;;;;4921291;29;20117;-86